KWRB/WRB METAR and TAF weather

Enter ICAO airport designator
Station Type Date Time Source
KWRB METAR 2019/02/17 15:23 UTC NOAA

KWRB 171523Z AUTO 00000KT 3SM BR OVC003 12/12 A2997 RMK AO2 SLP151


Station Type Date Time Source
KWRB Decoded METAR 2019/02/17 15:23 UTC NOAA

Warner Robins Air Force Base, GA, United States (KWRB) 32-38N 083-36W
Feb 17, 2019 - 10:23 AM EST / 2019.02.17 1523 UTC
Wind: Calm:0
Visibility: 3 mile(s):0
Sky conditions: overcast
Weather: mist
Temperature: 53 F (12 C)
Dew Point: 53 F (12 C)
Relative Humidity: 100%
Pressure (altimeter): 29.97 in. Hg (1014 hPa)
ob: KWRB 171523Z AUTO 00000KT 3SM BR OVC003 12/12 A2997 RMK AO2 SLP151
cycle: 15

Station Type Date Time Source
KWRB TAF 2019/02/16 09:54 UTC NOAA

TAF COR KWRB 160939Z 1609/1711 21009KT 9000 -SHRA BR BKN020 OVC040 WS020/24038KT QNH2976INS
BECMG 1617/1618 23012G20KT 8000 -SHRA OVC020 QNH2975INS
BECMG 1623/1624 28006KT 9999 NSW SCT020 BKN040 QNH2979INS
BECMG 1707/1708 VRB06KT 8000 BR BKN010 OVC020 QNH2985INS TX23/1621Z TN12/1612Z LAST NO
AMDS AFT 1609 NEXT 1905


Example: see airport list